sensor_id;sensor_type;location;lat;lon;timestamp;temperature;humidity
40516;DHT22;26216;53.724;9.898;2023-07-13T00:00:35;18.80;98.10
40516;DHT22;26216;53.724;9.898;2023-07-13T00:03:02;18.80;98.10
40516;DHT22;26216;53.724;9.898;2023-07-13T00:05:28;18.70;98.00
40516;DHT22;26216;53.724;9.898;2023-07-13T00:07:54;18.70;98.00
40516;DHT22;26216;53.724;9.898;2023-07-13T00:10:21;18.70;98.10
40516;DHT22;26216;53.724;9.898;2023-07-13T00:12:47;18.60;98.10
40516;DHT22;26216;53.724;9.898;2023-07-13T00:15:23;18.60;98.20
40516;DHT22;26216;53.724;9.898;2023-07-13T00:17:54;18.50;98.20
40516;DHT22;26216;53.724;9.898;2023-07-13T00:20:22;18.50;98.20
40516;DHT22;26216;53.724;9.898;2023-07-13T00:22:49;18.40;98.10
40516;DHT22;26216;53.724;9.898;2023-07-13T00:25:15;18.40;98.10
40516;DHT22;26216;53.724;9.898;2023-07-13T00:27:44;18.40;98.10
40516;DHT22;26216;53.724;9.898;2023-07-13T00:30:10;18.30;98.10
40516;DHT22;26216;53.724;9.898;2023-07-13T00:32:37;18.30;98.20
40516;DHT22;26216;53.724;9.898;2023-07-13T00:35:03;18.20;98.20
40516;DHT22;26216;53.724;9.898;2023-07-13T00:37:30;18.20;98.10
40516;DHT22;26216;53.724;9.898;2023-07-13T00:39:56;18.20;98.20
40516;DHT22;26216;53.724;9.898;2023-07-13T00:42:22;18.10;98.20
40516;DHT22;26216;53.724;9.898;2023-07-13T00:46:02;18.10;98.20
40516;DHT22;26216;53.724;9.898;2023-07-13T00:47:49;18.00;98.30
40516;DHT22;26216;53.724;9.898;2023-07-13T00:50:16;18.00;98.10
40516;DHT22;26216;53.724;9.898;2023-07-13T00:52:48;17.90;98.10
40516;DHT22;26216;53.724;9.898;2023-07-13T00:55:15;17.90;98.20
40516;DHT22;26216;53.724;9.898;2023-07-13T00:57:41;17.90;98.20
40516;DHT22;26216;53.724;9.898;2023-07-13T01:00:08;17.80;98.20
40516;DHT22;26216;53.724;9.898;2023-07-13T01:02:37;17.80;98.30
40516;DHT22;26216;53.724;9.898;2023-07-13T01:05:14;17.70;98.30
40516;DHT22;26216;53.724;9.898;2023-07-13T01:07:41;17.70;98.30
40516;DHT22;26216;53.724;9.898;2023-07-13T01:10:08;17.70;98.30
40516;DHT22;26216;53.724;9.898;2023-07-13T01:12:34;17.60;98.20
40516;DHT22;26216;53.724;9.898;2023-07-13T01:15:01;17.60;98.20
40516;DHT22;26216;53.724;9.898;2023-07-13T01:17:35;17.60;98.20
40516;DHT22;26216;53.724;9.898;2023-07-13T01:20:01;17.50;98.30
40516;DHT22;26216;53.724;9.898;2023-07-13T01:22:27;17.50;98.30
40516;DHT22;26216;53.724;9.898;2023-07-13T01:24:53;17.50;98.30
40516;DHT22;26216;53.724;9.898;2023-07-13T01:27:24;17.50;98.40
40516;DHT22;26216;53.724;9.898;2023-07-13T01:29:52;17.40;98.40
40516;DHT22;26216;53.724;9.898;2023-07-13T01:32:20;17.40;98.40
40516;DHT22;26216;53.724;9.898;2023-07-13T01:34:50;17.40;98.40
40516;DHT22;26216;53.724;9.898;2023-07-13T01:37:16;17.40;98.40
40516;DHT22;26216;53.724;9.898;2023-07-13T01:39:42;17.30;98.40
40516;DHT22;26216;53.724;9.898;2023-07-13T01:42:08;17.30;98.50
40516;DHT22;26216;53.724;9.898;2023-07-13T01:44:34;17.30;98.50
40516;DHT22;26216;53.724;9.898;2023-07-13T01:47:01;17.30;98.60
40516;DHT22;26216;53.724;9.898;2023-07-13T01:49:27;17.30;98.70
40516;DHT22;26216;53.724;9.898;2023-07-13T01:51:52;17.30;98.80
40516;DHT22;26216;53.724;9.898;2023-07-13T01:54:18;17.20;98.80
40516;DHT22;26216;53.724;9.898;2023-07-13T01:56:44;17.20;98.90
40516;DHT22;26216;53.724;9.898;2023-07-13T01:59:10;17.20;99.00
40516;DHT22;26216;53.724;9.898;2023-07-13T02:01:36;17.20;99.20
40516;DHT22;26216;53.724;9.898;2023-07-13T02:04:02;17.20;99.20
40516;DHT22;26216;53.724;9.898;2023-07-13T02:06:28;17.10;99.30
40516;DHT22;26216;53.724;9.898;2023-07-13T02:08:54;17.10;99.50
40516;DHT22;26216;53.724;9.898;2023-07-13T02:11:20;17.10;99.60
40516;DHT22;26216;53.724;9.898;2023-07-13T02:13:46;17.10;99.70
40516;DHT22;26216;53.724;9.898;2023-07-13T02:16:12;17.10;99.70
40516;DHT22;26216;53.724;9.898;2023-07-13T02:18:38;17.10;99.80
40516;DHT22;26216;53.724;9.898;2023-07-13T02:21:04;17.10;99.90
40516;DHT22;26216;53.724;9.898;2023-07-13T02:23:30;17.10;99.90
40516;DHT22;26216;53.724;9.898;2023-07-13T02:25:57;17.10;99.90
40516;DHT22;26216;53.724;9.898;2023-07-13T02:28:23;17.10;99.90
40516;DHT22;26216;53.724;9.898;2023-07-13T02:30:49;17.10;99.90
40516;DHT22;26216;53.724;9.898;2023-07-13T02:33:15;17.00;99.90
40516;DHT22;26216;53.724;9.898;2023-07-13T02:35:41;17.10;99.90
40516;DHT22;26216;53.724;9.898;2023-07-13T02:38:07;17.10;99.90
40516;DHT22;26216;53.724;9.898;2023-07-13T02:40:34;17.10;99.90
40516;DHT22;26216;53.724;9.898;2023-07-13T02:43:02;17.00;99.90
40516;DHT22;26216;53.724;9.898;2023-07-13T02:45:28;17.00;99.90
40516;DHT22;26216;53.724;9.898;2023-07-13T02:47:54;17.00;99.90
40516;DHT22;26216;53.724;9.898;2023-07-13T02:50:20;17.00;99.90
40516;DHT22;26216;53.724;9.898;2023-07-13T02:52:46;17.00;99.90
40516;DHT22;26216;53.724;9.898;2023-07-13T02:55:12;17.00;99.90
40516;DHT22;26216;53.724;9.898;2023-07-13T02:57:38;17.00;99.90
40516;DHT22;26216;53.724;9.898;2023-07-13T03:00:04;17.00;99.90
40516;DHT22;26216;53.724;9.898;2023-07-13T03:02:32;17.00;99.90
40516;DHT22;26216;53.724;9.898;2023-07-13T03:04:59;17.00;99.90
40516;DHT22;26216;53.724;9.898;2023-07-13T03:07:24;17.00;99.90
40516;DHT22;26216;53.724;9.898;2023-07-13T03:09:56;17.00;99.90
40516;DHT22;26216;53.724;9.898;2023-07-13T03:12:22;17.00;99.90
40516;DHT22;26216;53.724;9.898;2023-07-13T03:14:48;17.00;99.90
40516;DHT22;26216;53.724;9.898;2023-07-13T03:17:14;17.00;99.90
40516;DHT22;26216;53.724;9.898;2023-07-13T03:19:40;17.00;99.90
40516;DHT22;26216;53.724;9.898;2023-07-13T03:22:05;17.00;99.90
40516;DHT22;26216;53.724;9.898;2023-07-13T03:24:33;17.00;99.90
40516;DHT22;26216;53.724;9.898;2023-07-13T03:27:04;17.00;99.90
40516;DHT22;26216;53.724;9.898;2023-07-13T03:29:30;17.00;99.90
40516;DHT22;26216;53.724;9.898;2023-07-13T03:31:56;17.00;99.90
40516;DHT22;26216;53.724;9.898;2023-07-13T03:34:22;17.00;99.90
40516;DHT22;26216;53.724;9.898;2023-07-13T03:36:48;17.00;99.90
40516;DHT22;26216;53.724;9.898;2023-07-13T03:39:13;17.00;99.90
40516;DHT22;26216;53.724;9.898;2023-07-13T03:41:39;17.00;99.90
40516;DHT22;26216;53.724;9.898;2023-07-13T03:44:05;17.00;99.90
40516;DHT22;26216;53.724;9.898;2023-07-13T03:46:32;17.00;99.90
40516;DHT22;26216;53.724;9.898;2023-07-13T03:48:59;17.10;99.90
40516;DHT22;26216;53.724;9.898;2023-07-13T03:51:25;17.00;99.90
40516;DHT22;26216;53.724;9.898;2023-07-13T03:53:51;17.00;99.90
40516;DHT22;26216;53.724;9.898;2023-07-13T03:56:18;17.00;99.90
40516;DHT22;26216;53.724;9.898;2023-07-13T03:58:46;17.00;99.90
40516;DHT22;26216;53.724;9.898;2023-07-13T04:01:13;17.10;99.90
40516;DHT22;26216;53.724;9.898;2023-07-13T04:03:40;17.00;99.90
40516;DHT22;26216;53.724;9.898;2023-07-13T04:06:08;17.10;99.90
40516;DHT22;26216;53.724;9.898;2023-07-13T04:08:41;17.10;99.90
40516;DHT22;26216;53.724;9.898;2023-07-13T04:11:07;17.10;99.90
40516;DHT22;26216;53.724;9.898;2023-07-13T04:13:33;17.20;99.90
40516;DHT22;26216;53.724;9.898;2023-07-13T04:15:59;17.20;99.90
40516;DHT22;26216;53.724;9.898;2023-07-13T04:18:25;17.30;99.90
40516;DHT22;26216;53.724;9.898;2023-07-13T04:20:51;17.40;99.90
40516;DHT22;26216;53.724;9.898;2023-07-13T04:23:17;17.50;99.90
40516;DHT22;26216;53.724;9.898;2023-07-13T04:25:45;17.50;99.90
40516;DHT22;26216;53.724;9.898;2023-07-13T04:28:11;17.60;99.90
40516;DHT22;26216;53.724;9.898;2023-07-13T04:30:37;17.70;99.90
40516;DHT22;26216;53.724;9.898;2023-07-13T04:33:03;17.80;99.90
40516;DHT22;26216;53.724;9.898;2023-07-13T04:35:30;17.90;99.90
40516;DHT22;26216;53.724;9.898;2023-07-13T04:37:57;18.00;99.90
40516;DHT22;26216;53.724;9.898;2023-07-13T04:40:23;18.10;99.90
40516;DHT22;26216;53.724;9.898;2023-07-13T04:42:49;18.10;99.90
40516;DHT22;26216;53.724;9.898;2023-07-13T04:45:15;18.20;99.90
40516;DHT22;26216;53.724;9.898;2023-07-13T04:47:41;18.30;99.90
40516;DHT22;26216;53.724;9.898;2023-07-13T04:50:08;18.30;99.90
40516;DHT22;26216;53.724;9.898;2023-07-13T04:52:35;18.30;99.90
40516;DHT22;26216;53.724;9.898;2023-07-13T04:55:01;18.40;99.90
40516;DHT22;26216;53.724;9.898;2023-07-13T04:57:27;18.40;99.90
40516;DHT22;26216;53.724;9.898;2023-07-13T04:59:54;18.50;99.90
40516;DHT22;26216;53.724;9.898;2023-07-13T05:02:23;18.50;99.90
40516;DHT22;26216;53.724;9.898;2023-07-13T05:04:49;18.60;99.90
40516;DHT22;26216;53.724;9.898;2023-07-13T05:07:15;18.70;99.90
40516;DHT22;26216;53.724;9.898;2023-07-13T05:09:41;18.80;99.90
40516;DHT22;26216;53.724;9.898;2023-07-13T05:12:08;18.90;99.90
40516;DHT22;26216;53.724;9.898;2023-07-13T05:14:34;19.10;99.90
40516;DHT22;26216;53.724;9.898;2023-07-13T05:17:00;19.20;99.90
40516;DHT22;26216;53.724;9.898;2023-07-13T05:19:26;19.30;99.90
40516;DHT22;26216;53.724;9.898;2023-07-13T05:21:52;19.40;99.90
40516;DHT22;26216;53.724;9.898;2023-07-13T05:24:18;19.50;99.90
40516;DHT22;26216;53.724;9.898;2023-07-13T05:26:44;19.50;99.90
40516;DHT22;26216;53.724;9.898;2023-07-13T05:29:10;19.60;99.90
40516;DHT22;26216;53.724;9.898;2023-07-13T05:31:36;19.70;99.90
40516;DHT22;26216;53.724;9.898;2023-07-13T05:34:02;19.80;99.90
40516;DHT22;26216;53.724;9.898;2023-07-13T05:36:28;19.80;99.90
40516;DHT22;26216;53.724;9.898;2023-07-13T05:38:54;20.00;99.90
40516;DHT22;26216;53.724;9.898;2023-07-13T05:41:20;20.00;99.90
40516;DHT22;26216;53.724;9.898;2023-07-13T05:43:46;20.10;99.90
40516;DHT22;26216;53.724;9.898;2023-07-13T05:46:12;20.10;99.90
40516;DHT22;26216;53.724;9.898;2023-07-13T05:48:38;20.20;99.90
40516;DHT22;26216;53.724;9.898;2023-07-13T05:51:04;20.20;99.90
40516;DHT22;26216;53.724;9.898;2023-07-13T05:53:30;20.20;99.90
40516;DHT22;26216;53.724;9.898;2023-07-13T05:55:56;20.20;99.90
40516;DHT22;26216;53.724;9.898;2023-07-13T05:58:22;20.30;99.90
40516;DHT22;26216;53.724;9.898;2023-07-13T06:00:48;20.30;99.90
40516;DHT22;26216;53.724;9.898;2023-07-13T06:03:16;20.30;99.90
40516;DHT22;26216;53.724;9.898;2023-07-13T06:05:42;20.30;99.90
40516;DHT22;26216;53.724;9.898;2023-07-13T06:08:08;20.30;99.90
40516;DHT22;26216;53.724;9.898;2023-07-13T06:10:37;20.40;99.90
40516;DHT22;26216;53.724;9.898;2023-07-13T06:13:03;20.40;99.90
40516;DHT22;26216;53.724;9.898;2023-07-13T06:15:29;20.40;99.90
40516;DHT22;26216;53.724;9.898;2023-07-13T06:17:55;20.40;99.90
40516;DHT22;26216;53.724;9.898;2023-07-13T06:20:21;20.50;99.90
40516;DHT22;26216;53.724;9.898;2023-07-13T06:22:47;20.50;99.90
40516;DHT22;26216;53.724;9.898;2023-07-13T06:25:13;20.50;99.90
40516;DHT22;26216;53.724;9.898;2023-07-13T06:27:38;20.50;99.90
40516;DHT22;26216;53.724;9.898;2023-07-13T06:30:05;20.50;99.90
40516;DHT22;26216;53.724;9.898;2023-07-13T06:32:31;20.60;99.90
40516;DHT22;26216;53.724;9.898;2023-07-13T06:34:57;20.60;99.90
40516;DHT22;26216;53.724;9.898;2023-07-13T06:37:23;20.70;99.90
40516;DHT22;26216;53.724;9.898;2023-07-13T06:39:48;20.60;99.90
40516;DHT22;26216;53.724;9.898;2023-07-13T06:42:16;20.60;99.90
40516;DHT22;26216;53.724;9.898;2023-07-13T06:44:42;20.70;99.90
40516;DHT22;26216;53.724;9.898;2023-07-13T06:47:08;20.70;99.90
40516;DHT22;26216;53.724;9.898;2023-07-13T06:49:34;20.80;99.70
40516;DHT22;26216;53.724;9.898;2023-07-13T06:51:59;20.80;99.80
40516;DHT22;26216;53.724;9.898;2023-07-13T06:54:25;20.80;99.90
40516;DHT22;26216;53.724;9.898;2023-07-13T06:56:52;20.80;99.70
40516;DHT22;26216;53.724;9.898;2023-07-13T06:59:18;20.80;99.70
40516;DHT22;26216;53.724;9.898;2023-07-13T07:01:44;20.90;99.90
40516;DHT22;26216;53.724;9.898;2023-07-13T07:04:10;20.90;99.90
40516;DHT22;26216;53.724;9.898;2023-07-13T07:06:36;21.00;99.90
40516;DHT22;26216;53.724;9.898;2023-07-13T07:09:02;21.00;99.90
40516;DHT22;26216;53.724;9.898;2023-07-13T07:11:28;21.10;99.90
40516;DHT22;26216;53.724;9.898;2023-07-13T07:13:54;21.20;99.90
40516;DHT22;26216;53.724;9.898;2023-07-13T07:16:21;21.20;99.70
40516;DHT22;26216;53.724;9.898;2023-07-13T07:18:47;21.20;99.40
40516;DHT22;26216;53.724;9.898;2023-07-13T07:21:13;21.30;99.10
40516;DHT22;26216;53.724;9.898;2023-07-13T07:23:40;21.30;99.10
40516;DHT22;26216;53.724;9.898;2023-07-13T07:26:06;21.30;98.70
40516;DHT22;26216;53.724;9.898;2023-07-13T07:28:34;21.30;99.00
40516;DHT22;26216;53.724;9.898;2023-07-13T07:31:00;21.40;99.30
40516;DHT22;26216;53.724;9.898;2023-07-13T07:33:26;21.40;99.40
40516;DHT22;26216;53.724;9.898;2023-07-13T07:35:52;21.40;99.40
40516;DHT22;26216;53.724;9.898;2023-07-13T07:38:18;21.50;98.70
40516;DHT22;26216;53.724;9.898;2023-07-13T07:40:44;21.50;98.50
40516;DHT22;26216;53.724;9.898;2023-07-13T07:43:11;21.60;98.20
40516;DHT22;26216;53.724;9.898;2023-07-13T07:45:38;21.60;98.70
40516;DHT22;26216;53.724;9.898;2023-07-13T07:48:05;21.70;98.50
40516;DHT22;26216;53.724;9.898;2023-07-13T07:50:32;21.70;98.60
40516;DHT22;26216;53.724;9.898;2023-07-13T07:52:58;21.80;98.60
40516;DHT22;26216;53.724;9.898;2023-07-13T07:55:25;21.90;98.70
40516;DHT22;26216;53.724;9.898;2023-07-13T07:57:54;21.90;98.90
40516;DHT22;26216;53.724;9.898;2023-07-13T08:00:20;22.00;99.00
40516;DHT22;26216;53.724;9.898;2023-07-13T08:02:46;22.10;98.70
40516;DHT22;26216;53.724;9.898;2023-07-13T08:05:14;22.20;99.20
40516;DHT22;26216;53.724;9.898;2023-07-13T08:07:40;22.30;99.40
40516;DHT22;26216;53.724;9.898;2023-07-13T08:10:07;22.50;99.10
40516;DHT22;26216;53.724;9.898;2023-07-13T08:12:38;22.60;98.90
40516;DHT22;26216;53.724;9.898;2023-07-13T08:15:05;22.70;98.20
40516;DHT22;26216;53.724;9.898;2023-07-13T08:17:32;22.70;98.60
40516;DHT22;26216;53.724;9.898;2023-07-13T08:19:58;22.90;98.60
40516;DHT22;26216;53.724;9.898;2023-07-13T08:22:24;23.00;97.80
40516;DHT22;26216;53.724;9.898;2023-07-13T08:24:50;23.10;98.00
40516;DHT22;26216;53.724;9.898;2023-07-13T08:27:25;23.20;98.20
40516;DHT22;26216;53.724;9.898;2023-07-13T08:29:52;23.30;96.90
40516;DHT22;26216;53.724;9.898;2023-07-13T08:32:19;23.40;96.90
40516;DHT22;26216;53.724;9.898;2023-07-13T08:34:46;23.50;97.10
40516;DHT22;26216;53.724;9.898;2023-07-13T08:37:12;23.60;96.90
40516;DHT22;26216;53.724;9.898;2023-07-13T08:39:38;23.70;97.10
40516;DHT22;26216;53.724;9.898;2023-07-13T08:45:22;24.00;96.40
40516;DHT22;26216;53.724;9.898;2023-07-13T08:47:57;24.10;96.40
40516;DHT22;26216;53.724;9.898;2023-07-13T08:50:32;24.20;96.20
40516;DHT22;26216;53.724;9.898;2023-07-13T08:53:01;24.30;95.90
40516;DHT22;26216;53.724;9.898;2023-07-13T08:55:30;24.40;95.50
40516;DHT22;26216;53.724;9.898;2023-07-13T08:58:15;24.50;95.30
40516;DHT22;26216;53.724;9.898;2023-07-13T09:00:48;24.60;94.30
40516;DHT22;26216;53.724;9.898;2023-07-13T09:03:23;24.70;94.30
40516;DHT22;26216;53.724;9.898;2023-07-13T09:05:54;24.70;94.10
40516;DHT22;26216;53.724;9.898;2023-07-13T09:14:15;24.50;92.00
40516;DHT22;26216;53.724;9.898;2023-07-13T09:16:47;24.40;92.30
40516;DHT22;26216;53.724;9.898;2023-07-13T09:19:21;24.30;92.80
40516;DHT22;26216;53.724;9.898;2023-07-13T09:21:50;24.10;93.00
40516;DHT22;26216;53.724;9.898;2023-07-13T09:24:38;24.10;93.70
40516;DHT22;26216;53.724;9.898;2023-07-13T09:27:21;24.00;93.40
40516;DHT22;26216;53.724;9.898;2023-07-13T09:30:17;24.00;93.70
40516;DHT22;26216;53.724;9.898;2023-07-13T09:32:51;24.10;94.30
40516;DHT22;26216;53.724;9.898;2023-07-13T09:35:25;24.10;93.80
40516;DHT22;26216;53.724;9.898;2023-07-13T09:37:58;24.10;93.50
40516;DHT22;26216;53.724;9.898;2023-07-13T09:40:30;24.20;93.40
40516;DHT22;26216;53.724;9.898;2023-07-13T09:42:58;24.30;93.70
40516;DHT22;26216;53.724;9.898;2023-07-13T09:45:30;24.40;94.30
40516;DHT22;26216;53.724;9.898;2023-07-13T09:48:04;24.50;92.20
40516;DHT22;26216;53.724;9.898;2023-07-13T09:50:30;24.60;92.90
40516;DHT22;26216;53.724;9.898;2023-07-13T09:52:56;24.70;92.00
40516;DHT22;26216;53.724;9.898;2023-07-13T09:55:38;24.80;93.10
40516;DHT22;26216;53.724;9.898;2023-07-13T09:58:14;24.90;92.50
40516;DHT22;26216;53.724;9.898;2023-07-13T10:00:43;25.00;91.50
40516;DHT22;26216;53.724;9.898;2023-07-13T10:03:21;25.00;90.40
40516;DHT22;26216;53.724;9.898;2023-07-13T10:05:50;25.00;90.40
40516;DHT22;26216;53.724;9.898;2023-07-13T10:08:27;25.10;90.90
40516;DHT22;26216;53.724;9.898;2023-07-13T10:11:00;25.10;90.50
40516;DHT22;26216;53.724;9.898;2023-07-13T10:13:31;25.20;89.70
40516;DHT22;26216;53.724;9.898;2023-07-13T10:15:59;25.20;90.60
40516;DHT22;26216;53.724;9.898;2023-07-13T10:18:25;25.20;90.60
40516;DHT22;26216;53.724;9.898;2023-07-13T10:21:09;25.30;90.60
40516;DHT22;26216;53.724;9.898;2023-07-13T10:23:36;25.40;88.10
40516;DHT22;26216;53.724;9.898;2023-07-13T10:26:03;25.40;87.90
40516;DHT22;26216;53.724;9.898;2023-07-13T10:28:37;25.40;87.70
40516;DHT22;26216;53.724;9.898;2023-07-13T10:31:10;25.50;87.10
40516;DHT22;26216;53.724;9.898;2023-07-13T10:33:37;25.50;86.80
40516;DHT22;26216;53.724;9.898;2023-07-13T10:36:45;25.50;86.30
40516;DHT22;26216;53.724;9.898;2023-07-13T10:39:20;25.60;87.60
40516;DHT22;26216;53.724;9.898;2023-07-13T10:41:52;25.70;87.00
40516;DHT22;26216;53.724;9.898;2023-07-13T10:44:25;25.70;83.60
40516;DHT22;26216;53.724;9.898;2023-07-13T10:47:08;25.70;83.90
40516;DHT22;26216;53.724;9.898;2023-07-13T10:49:37;25.60;82.10
40516;DHT22;26216;53.724;9.898;2023-07-13T10:52:05;25.50;83.90
40516;DHT22;26216;53.724;9.898;2023-07-13T10:54:32;25.50;84.10
40516;DHT22;26216;53.724;9.898;2023-07-13T10:57:17;25.30;82.80
40516;DHT22;26216;53.724;9.898;2023-07-13T10:59:49;25.20;81.90
40516;DHT22;26216;53.724;9.898;2023-07-13T11:02:34;25.00;83.60
40516;DHT22;26216;53.724;9.898;2023-07-13T11:05:20;24.80;85.10
40516;DHT22;26216;53.724;9.898;2023-07-13T11:10:56;24.50;86.30
40516;DHT22;26216;53.724;9.898;2023-07-13T11:16:43;24.30;82.70
40516;DHT22;26216;53.724;9.898;2023-07-13T11:22:15;24.10;84.10
40516;DHT22;26216;53.724;9.898;2023-07-13T11:25:01;23.90;84.70
40516;DHT22;26216;53.724;9.898;2023-07-13T11:27:39;23.80;84.70
40516;DHT22;26216;53.724;9.898;2023-07-13T11:35:34;23.60;84.70
40516;DHT22;26216;53.724;9.898;2023-07-13T11:38:03;23.50;85.30
40516;DHT22;26216;53.724;9.898;2023-07-13T11:40:35;23.50;86.50
40516;DHT22;26216;53.724;9.898;2023-07-13T11:43:02;23.60;87.10
40516;DHT22;26216;53.724;9.898;2023-07-13T11:45:33;23.70;88.50
40516;DHT22;26216;53.724;9.898;2023-07-13T11:47:58;23.80;88.10
40516;DHT22;26216;53.724;9.898;2023-07-13T11:50:27;23.90;86.60
40516;DHT22;26216;53.724;9.898;2023-07-13T11:52:54;23.90;86.40
40516;DHT22;26216;53.724;9.898;2023-07-13T11:55:22;23.90;88.20
40516;DHT22;26216;53.724;9.898;2023-07-13T11:57:53;23.80;88.70
40516;DHT22;26216;53.724;9.898;2023-07-13T12:00:25;23.70;90.00
40516;DHT22;26216;53.724;9.898;2023-07-13T12:02:54;23.40;90.40
40516;DHT22;26216;53.724;9.898;2023-07-13T12:05:21;23.20;90.60
40516;DHT22;26216;53.724;9.898;2023-07-13T12:07:48;23.00;91.30
40516;DHT22;26216;53.724;9.898;2023-07-13T12:17:35;22.10;91.60
40516;DHT22;26216;53.724;9.898;2023-07-13T12:20:26;21.90;91.70
40516;DHT22;26216;53.724;9.898;2023-07-13T12:22:52;21.70;92.50
40516;DHT22;26216;53.724;9.898;2023-07-13T12:25:19;21.50;92.40
40516;DHT22;26216;53.724;9.898;2023-07-13T12:27:50;21.50;92.80
40516;DHT22;26216;53.724;9.898;2023-07-13T12:30:31;21.50;93.40
40516;DHT22;26216;53.724;9.898;2023-07-13T12:33:12;21.40;93.80
40516;DHT22;26216;53.724;9.898;2023-07-13T12:35:46;21.40;94.30
40516;DHT22;26216;53.724;9.898;2023-07-13T12:38:13;21.50;94.70
40516;DHT22;26216;53.724;9.898;2023-07-13T12:40:39;21.50;94.90
40516;DHT22;26216;53.724;9.898;2023-07-13T12:43:12;21.60;95.20
40516;DHT22;26216;53.724;9.898;2023-07-13T12:45:38;21.70;95.60
40516;DHT22;26216;53.724;9.898;2023-07-13T12:48:15;21.80;95.70
40516;DHT22;26216;53.724;9.898;2023-07-13T12:50:46;22.00;95.90
40516;DHT22;26216;53.724;9.898;2023-07-13T12:53:20;22.10;96.10
40516;DHT22;26216;53.724;9.898;2023-07-13T12:55:49;22.30;96.10
40516;DHT22;26216;53.724;9.898;2023-07-13T13:01:04;22.60;96.10
40516;DHT22;26216;53.724;9.898;2023-07-13T13:03:35;22.70;96.20
40516;DHT22;26216;53.724;9.898;2023-07-13T13:08:46;22.90;95.50
40516;DHT22;26216;53.724;9.898;2023-07-13T13:11:18;22.90;95.50
40516;DHT22;26216;53.724;9.898;2023-07-13T13:13:45;22.90;95.60
40516;DHT22;26216;53.724;9.898;2023-07-13T13:18:52;23.00;95.70
40516;DHT22;26216;53.724;9.898;2023-07-13T13:21:19;23.00;95.80
40516;DHT22;26216;53.724;9.898;2023-07-13T13:23:46;23.10;95.80
40516;DHT22;26216;53.724;9.898;2023-07-13T13:26:14;23.10;95.90
40516;DHT22;26216;53.724;9.898;2023-07-13T13:28:44;23.20;96.10
40516;DHT22;26216;53.724;9.898;2023-07-13T13:31:11;23.30;95.90
40516;DHT22;26216;53.724;9.898;2023-07-13T13:33:42;23.40;95.80
40516;DHT22;26216;53.724;9.898;2023-07-13T13:36:22;23.40;96.00
40516;DHT22;26216;53.724;9.898;2023-07-13T13:38:50;23.50;95.70
40516;DHT22;26216;53.724;9.898;2023-07-13T13:41:16;23.50;95.30
40516;DHT22;26216;53.724;9.898;2023-07-13T13:43:43;23.60;95.10
40516;DHT22;26216;53.724;9.898;2023-07-13T13:46:23;23.70;95.30
40516;DHT22;26216;53.724;9.898;2023-07-13T13:48:54;23.70;95.00
40516;DHT22;26216;53.724;9.898;2023-07-13T13:51:22;23.70;95.20
40516;DHT22;26216;53.724;9.898;2023-07-13T13:53:49;23.70;95.40
40516;DHT22;26216;53.724;9.898;2023-07-13T13:56:17;23.80;95.10
40516;DHT22;26216;53.724;9.898;2023-07-13T13:58:44;23.80;95.50
40516;DHT22;26216;53.724;9.898;2023-07-13T14:01:17;23.90;95.40
40516;DHT22;26216;53.724;9.898;2023-07-13T14:03:44;23.90;95.00
40516;DHT22;26216;53.724;9.898;2023-07-13T14:06:14;24.00;95.20
40516;DHT22;26216;53.724;9.898;2023-07-13T14:08:41;24.10;95.50
40516;DHT22;26216;53.724;9.898;2023-07-13T14:11:12;24.10;95.30
40516;DHT22;26216;53.724;9.898;2023-07-13T14:13:44;24.20;95.10
40516;DHT22;26216;53.724;9.898;2023-07-13T14:16:18;24.30;95.10
40516;DHT22;26216;53.724;9.898;2023-07-13T14:18:45;24.40;95.00
40516;DHT22;26216;53.724;9.898;2023-07-13T14:21:16;24.50;94.30
40516;DHT22;26216;53.724;9.898;2023-07-13T14:23:43;24.60;93.30
40516;DHT22;26216;53.724;9.898;2023-07-13T14:26:15;24.60;92.20
40516;DHT22;26216;53.724;9.898;2023-07-13T14:28:43;24.60;91.50
40516;DHT22;26216;53.724;9.898;2023-07-13T14:31:11;24.60;91.60
40516;DHT22;26216;53.724;9.898;2023-07-13T14:33:37;24.50;91.80
40516;DHT22;26216;53.724;9.898;2023-07-13T14:38:39;24.50;91.90
40516;DHT22;26216;53.724;9.898;2023-07-13T14:41:07;24.40;91.70
40516;DHT22;26216;53.724;9.898;2023-07-13T14:43:33;24.40;91.60
40516;DHT22;26216;53.724;9.898;2023-07-13T14:45:59;24.40;91.50
40516;DHT22;26216;53.724;9.898;2023-07-13T14:48:25;24.40;90.90
40516;DHT22;26216;53.724;9.898;2023-07-13T14:50:55;24.30;89.70
40516;DHT22;26216;53.724;9.898;2023-07-13T14:53:22;24.20;90.50
40516;DHT22;26216;53.724;9.898;2023-07-13T14:55:49;24.20;90.40
40516;DHT22;26216;53.724;9.898;2023-07-13T14:58:15;24.20;91.10
40516;DHT22;26216;53.724;9.898;2023-07-13T15:00:41;24.30;91.20
40516;DHT22;26216;53.724;9.898;2023-07-13T15:03:17;24.30;91.10
40516;DHT22;26216;53.724;9.898;2023-07-13T15:05:47;24.40;90.30
40516;DHT22;26216;53.724;9.898;2023-07-13T15:08:15;24.50;88.20
40516;DHT22;26216;53.724;9.898;2023-07-13T15:10:41;24.60;87.80
40516;DHT22;26216;53.724;9.898;2023-07-13T15:13:21;24.60;87.20
40516;DHT22;26216;53.724;9.898;2023-07-13T15:15:51;24.70;86.70
40516;DHT22;26216;53.724;9.898;2023-07-13T15:18:21;24.80;85.50
40516;DHT22;26216;53.724;9.898;2023-07-13T15:20:49;24.80;85.80
40516;DHT22;26216;53.724;9.898;2023-07-13T15:23:17;24.90;85.10
40516;DHT22;26216;53.724;9.898;2023-07-13T15:25:43;24.90;82.30
40516;DHT22;26216;53.724;9.898;2023-07-13T15:28:10;25.00;84.10
40516;DHT22;26216;53.724;9.898;2023-07-13T15:30:43;25.10;83.10
40516;DHT22;26216;53.724;9.898;2023-07-13T15:35:43;25.10;80.60
40516;DHT22;26216;53.724;9.898;2023-07-13T15:38:24;25.20;82.70
40516;DHT22;26216;53.724;9.898;2023-07-13T15:40:52;25.20;80.50
40516;DHT22;26216;53.724;9.898;2023-07-13T15:43:19;25.10;79.00
40516;DHT22;26216;53.724;9.898;2023-07-13T15:45:46;25.10;79.70
40516;DHT22;26216;53.724;9.898;2023-07-13T15:48:18;25.10;81.60
40516;DHT22;26216;53.724;9.898;2023-07-13T15:50:50;25.20;81.50
40516;DHT22;26216;53.724;9.898;2023-07-13T15:53:25;25.20;81.60
40516;DHT22;26216;53.724;9.898;2023-07-13T15:55:51;25.30;82.10
40516;DHT22;26216;53.724;9.898;2023-07-13T15:58:18;25.30;82.10
40516;DHT22;26216;53.724;9.898;2023-07-13T16:00:46;25.40;81.20
40516;DHT22;26216;53.724;9.898;2023-07-13T16:03:12;25.30;80.60
40516;DHT22;26216;53.724;9.898;2023-07-13T16:05:38;25.30;81.00
40516;DHT22;26216;53.724;9.898;2023-07-13T16:08:06;25.20;80.80
40516;DHT22;26216;53.724;9.898;2023-07-13T16:10:37;25.10;80.80
40516;DHT22;26216;53.724;9.898;2023-07-13T16:13:04;25.00;80.40
40516;DHT22;26216;53.724;9.898;2023-07-13T16:15:33;25.00;82.00
40516;DHT22;26216;53.724;9.898;2023-07-13T16:17:59;25.00;82.20
40516;DHT22;26216;53.724;9.898;2023-07-13T16:20:25;24.90;83.10
40516;DHT22;26216;53.724;9.898;2023-07-13T16:22:53;25.00;82.60